Time;durP1;ratioP1;P1;durP2;ratioP2;P2;SDS_P1;SDS_P2;PMS_P1;PMS_P2;Temp;Humidity;BMP_temperature;BMP_pressure;BME280_temperature;BME280_humidity;BME280_pressure;Samples;Min_cycle;Max_cycle;Signal;HPM_P1;HPM_P2
2023/07/04 00:02:25;;;;;;;12.30;7.33;;;17.70;99.90;;;;;;5102225;28;21024;-83
2023/07/04 00:04:51;;;;;;;8.60;6.63;;;17.70;99.90;;;;;;5107217;28;20442;-84
2023/07/04 00:07:20;;;;;;;8.33;7.50;;;17.60;99.90;;;;;;5106504;27;20454;-83
2023/07/04 00:09:47;;;;;;;9.03;7.80;;;17.60;99.90;;;;;;5105876;28;20494;-83
2023/07/04 00:12:14;;;;;;;7.67;6.30;;;17.40;99.90;;;;;;5106206;27;20561;-84
2023/07/04 00:14:44;;;;;;;11.07;6.77;;;17.40;99.90;;;;;;5112236;27;20505;-85
2023/07/04 00:17:11;;;;;;;9.93;6.07;;;17.40;99.90;;;;;;5105543;28;20859;-84
2023/07/04 00:19:39;;;;;;;8.97;6.33;;;17.30;99.90;;;;;;5105951;28;21209;-84
2023/07/04 00:22:10;;;;;;;7.10;6.40;;;17.20;99.90;;;;;;5102698;28;20507;-84
2023/07/04 00:24:37;;;;;;;8.40;7.17;;;17.20;99.90;;;;;;5106413;27;20472;-82
2023/07/04 00:27:05;;;;;;;7.30;6.43;;;17.10;99.90;;;;;;5107189;28;20536;-83
2023/07/04 00:29:32;;;;;;;7.30;6.20;;;17.10;99.90;;;;;;5111894;27;20481;-84
2023/07/04 00:32:02;;;;;;;8.73;7.33;;;17.10;99.90;;;;;;5098180;28;20454;-82
2023/07/04 00:34:29;;;;;;;8.17;6.77;;;17.20;99.90;;;;;;5101107;27;20943;-84
2023/07/04 00:36:59;;;;;;;8.20;7.40;;;17.20;99.90;;;;;;5100561;28;20450;-85
2023/07/04 00:39:27;;;;;;;7.70;5.90;;;17.20;99.90;;;;;;5109098;28;20540;-84
2023/07/04 00:41:54;;;;;;;11.40;7.30;;;17.20;99.90;;;;;;5103634;27;20862;-83
2023/07/04 00:44:24;;;;;;;10.37;7.00;;;17.10;99.90;;;;;;5110361;27;21246;-84
2023/07/04 00:47:06;;;;;;;8.80;6.53;;;17.00;99.90;;;;;;5099255;28;20453;-85
2023/07/04 00:49:42;;;;;;;7.73;5.77;;;17.00;99.90;;;;;;5103309;28;20495;-84
2023/07/04 00:52:12;;;;;;;6.70;5.60;;;17.00;99.90;;;;;;5106396;28;20444;-85
2023/07/04 00:54:43;;;;;;;7.33;5.77;;;17.00;99.90;;;;;;5100704;27;20529;-83
2023/07/04 00:57:12;;;;;;;6.57;5.97;;;17.10;99.90;;;;;;5108804;27;20459;-82
2023/07/04 00:59:43;;;;;;;7.47;6.63;;;17.10;99.90;;;;;;5104465;28;20455;-84
2023/07/04 01:02:11;;;;;;;7.53;6.57;;;17.10;99.90;;;;;;5100040;28;20461;-83
2023/07/04 01:04:41;;;;;;;8.60;6.67;;;17.10;99.90;;;;;;5103977;28;20945;-85
2023/07/04 01:07:16;;;;;;;11.80;7.13;;;17.10;99.90;;;;;;5098599;28;20484;-85
2023/07/04 01:09:49;;;;;;;7.30;5.83;;;17.10;99.90;;;;;;5101110;27;20480;-83
2023/07/04 01:12:18;;;;;;;8.53;5.90;;;17.00;99.90;;;;;;5107356;27;20540;-82
2023/07/04 01:14:47;;;;;;;8.37;6.50;;;17.00;99.90;;;;;;5102674;28;20483;-84
2023/07/04 01:17:14;;;;;;;6.93;6.23;;;16.90;99.90;;;;;;5103362;28;20533;-85
2023/07/04 01:19:43;;;;;;;8.80;6.50;;;16.80;99.90;;;;;;5104389;28;20460;-85
2023/07/04 01:22:20;;;;;;;10.90;6.37;;;16.70;99.90;;;;;;5105720;28;20444;-87
2023/07/04 01:24:56;;;;;;;8.50;5.73;;;16.70;99.90;;;;;;5100868;28;20476;-83
2023/07/04 01:27:27;;;;;;;8.83;6.90;;;16.60;99.90;;;;;;5102178;27;20519;-83
2023/07/04 01:29:55;;;;;;;13.03;7.37;;;16.60;99.90;;;;;;5111708;27;20456;-83
2023/07/04 01:32:23;;;;;;;9.03;6.83;;;16.60;99.90;;;;;;5098027;28;20472;-83
2023/07/04 01:34:50;;;;;;;8.60;6.13;;;16.40;99.90;;;;;;5103582;28;20923;-84
2023/07/04 01:37:18;;;;;;;6.77;5.93;;;16.50;99.90;;;;;;5106334;28;20457;-84
2023/07/04 01:39:45;;;;;;;11.10;7.73;;;16.50;99.90;;;;;;5106906;27;20529;-83
2023/07/04 01:42:12;;;;;;;10.50;7.03;;;16.40;99.90;;;;;;5100218;28;20448;-84
2023/07/04 01:44:41;;;;;;;8.60;6.97;;;16.50;99.90;;;;;;5106780;27;20497;-85
2023/07/04 01:47:08;;;;;;;8.80;6.70;;;16.40;99.90;;;;;;5097513;28;20440;-83
2023/07/04 01:49:35;;;;;;;8.27;6.77;;;16.50;99.90;;;;;;5098821;27;20514;-84
2023/07/04 01:52:02;;;;;;;12.00;8.00;;;16.50;99.90;;;;;;5098177;28;20459;-82
2023/07/04 01:54:30;;;;;;;9.60;7.03;;;16.50;99.90;;;;;;5101217;28;20987;-84
2023/07/04 01:56:57;;;;;;;8.57;6.60;;;16.60;99.90;;;;;;5103553;27;20459;-84
2023/07/04 01:59:24;;;;;;;11.17;8.10;;;16.80;99.90;;;;;;5108569;27;20956;-86
2023/07/04 02:01:53;;;;;;;9.03;7.67;;;16.80;99.90;;;;;;5101455;28;20535;-83
2023/07/04 02:04:20;;;;;;;7.80;6.80;;;17.00;99.90;;;;;;5106596;28;20524;-85
2023/07/04 02:06:46;;;;;;;8.20;6.50;;;17.10;99.90;;;;;;5090301;28;20513;-85
2023/07/04 02:09:15;;;;;;;10.53;7.43;;;17.10;99.90;;;;;;5107246;27;20533;-84
2023/07/04 02:11:42;;;;;;;8.53;7.23;;;17.10;99.90;;;;;;5103177;27;21197;-85
2023/07/04 02:14:09;;;;;;;13.07;7.20;;;17.10;99.90;;;;;;5106419;27;20451;-82
2023/07/04 02:16:36;;;;;;;13.00;7.60;;;17.10;99.90;;;;;;5104833;28;20444;-85
2023/07/04 02:19:05;;;;;;;10.40;6.90;;;17.00;99.90;;;;;;5102850;28;20464;-85
2023/07/04 02:21:31;;;;;;;9.27;6.53;;;17.00;99.90;;;;;;5101639;28;20500;-85
2023/07/04 02:23:58;;;;;;;17.33;7.70;;;17.00;99.90;;;;;;5102589;28;20519;-84
2023/07/04 02:26:25;;;;;;;8.03;7.23;;;16.90;99.90;;;;;;5094182;27;21066;-85
2023/07/04 02:28:52;;;;;;;10.30;7.37;;;16.90;99.90;;;;;;5101021;28;20451;-84
2023/07/04 02:31:20;;;;;;;9.93;6.70;;;16.90;99.90;;;;;;5105750;28;21080;-85
2023/07/04 02:33:47;;;;;;;9.30;7.20;;;16.80;99.90;;;;;;5104341;28;20447;-83
2023/07/04 02:36:16;;;;;;;7.57;5.90;;;16.70;99.90;;;;;;5096099;28;20470;-84
2023/07/04 02:38:43;;;;;;;11.93;7.13;;;16.60;99.90;;;;;;5106632;27;20527;-85
2023/07/04 02:41:10;;;;;;;8.80;6.83;;;16.40;99.90;;;;;;5097912;27;20502;-83
2023/07/04 02:43:38;;;;;;;9.13;6.97;;;16.40;99.90;;;;;;5106103;27;21082;-85
2023/07/04 02:46:07;;;;;;;11.50;6.70;;;16.30;99.90;;;;;;5094872;28;20447;-81
2023/07/04 02:48:34;;;;;;;6.57;5.97;;;16.30;99.90;;;;;;5102113;28;20513;-80
2023/07/04 02:51:02;;;;;;;13.43;7.20;;;16.30;99.90;;;;;;5101537;28;20463;-82
2023/07/04 02:53:32;;;;;;;11.23;8.37;;;16.20;99.90;;;;;;5095447;28;20450;-81
2023/07/04 02:55:59;;;;;;;7.80;6.73;;;16.20;99.90;;;;;;5097588;28;20446;-82
2023/07/04 02:58:26;;;;;;;8.07;6.50;;;16.20;99.90;;;;;;5098994;27;20921;-81
2023/07/04 03:00:55;;;;;;;7.33;6.10;;;16.10;99.90;;;;;;5097292;28;20495;-83
2023/07/04 03:03:22;;;;;;;10.87;6.90;;;16.20;99.90;;;;;;5101183;27;20923;-84
2023/07/04 03:05:49;;;;;;;9.23;7.37;;;16.20;99.90;;;;;;5097011;28;20475;-82
2023/07/04 03:08:16;;;;;;;7.80;7.10;;;16.20;99.90;;;;;;5097640;28;20867;-81
2023/07/04 03:10:47;;;;;;;9.77;7.30;;;16.10;99.90;;;;;;5099458;27;20504;-84
2023/07/04 03:13:14;;;;;;;7.07;6.37;;;16.00;99.90;;;;;;5104997;27;21750;-81
2023/07/04 03:15:41;;;;;;;11.50;7.40;;;15.80;99.90;;;;;;5100087;28;20583;-81
2023/07/04 03:18:09;;;;;;;9.33;6.60;;;15.70;99.90;;;;;;5105760;28;20496;-81
2023/07/04 03:20:36;;;;;;;8.57;6.37;;;15.60;99.90;;;;;;5110279;28;20526;-81
2023/07/04 03:23:03;;;;;;;16.60;8.60;;;15.50;99.90;;;;;;5098694;28;20575;-83
2023/07/04 03:25:30;;;;;;;10.40;6.93;;;15.60;99.90;;;;;;5106740;28;20516;-83
2023/07/04 03:27:58;;;;;;;9.47;6.60;;;15.60;99.90;;;;;;5113871;28;20518;-84
2023/07/04 03:30:25;;;;;;;10.20;7.13;;;15.50;99.90;;;;;;5114941;28;20457;-80
2023/07/04 03:32:52;;;;;;;10.40;7.70;;;15.50;99.90;;;;;;5108523;28;20503;-83
2023/07/04 03:35:19;;;;;;;13.20;7.73;;;15.60;99.90;;;;;;5105796;28;20505;-82
2023/07/04 03:37:46;;;;;;;7.80;6.43;;;15.70;99.90;;;;;;5106645;28;20556;-83
2023/07/04 03:40:14;;;;;;;8.40;7.07;;;15.70;99.90;;;;;;5105582;28;20829;-84
2023/07/04 03:42:41;;;;;;;8.43;6.73;;;15.80;99.90;;;;;;5099884;28;20456;-82
2023/07/04 03:45:11;;;;;;;10.10;7.00;;;15.80;99.90;;;;;;5099938;28;20487;-82
2023/07/04 03:47:38;;;;;;;9.87;7.57;;;15.90;99.90;;;;;;5099762;28;20864;-85
2023/07/04 03:50:07;;;;;;;9.73;6.80;;;15.90;99.90;;;;;;5099426;28;20464;-83
2023/07/04 03:52:34;;;;;;;9.10;6.27;;;16.00;99.90;;;;;;5092874;28;20479;-83
2023/07/04 03:55:01;;;;;;;8.27;7.17;;;16.20;99.90;;;;;;5100698;28;21093;-83
2023/07/04 03:57:28;;;;;;;11.60;6.73;;;16.30;99.90;;;;;;5096274;28;21045;-86
2023/07/04 03:59:55;;;;;;;7.97;6.30;;;16.40;99.90;;;;;;5105358;28;20848;-83
2023/07/04 04:02:23;;;;;;;7.67;6.10;;;16.30;99.90;;;;;;5105175;28;20452;-84
2023/07/04 04:04:51;;;;;;;8.33;5.67;;;16.20;99.90;;;;;;5093699;28;20499;-84
2023/07/04 04:07:18;;;;;;;14.73;6.87;;;16.40;99.90;;;;;;5095629;28;20448;-83
2023/07/04 04:09:45;;;;;;;9.10;6.50;;;16.50;99.90;;;;;;5105563;28;20894;-83
2023/07/04 04:12:12;;;;;;;7.90;6.87;;;16.60;99.90;;;;;;5109647;28;20470;-85
2023/07/04 04:14:39;;;;;;;8.83;6.53;;;16.70;99.90;;;;;;5113004;27;20972;-83
2023/07/04 04:17:06;;;;;;;7.53;6.33;;;16.80;99.90;;;;;;5102569;28;20816;-83
2023/07/04 04:19:35;;;;;;;8.83;7.60;;;16.70;99.90;;;;;;5102099;28;20443;-83
2023/07/04 04:22:02;;;;;;;9.10;6.77;;;16.80;99.90;;;;;;5100261;28;20540;-82
2023/07/04 04:24:29;;;;;;;7.87;6.43;;;16.80;99.90;;;;;;5107390;27;21050;-83
2023/07/04 04:27:00;;;;;;;12.80;7.10;;;16.80;99.90;;;;;;5103577;28;20454;-83
2023/07/04 04:29:28;;;;;;;10.43;6.80;;;16.90;99.90;;;;;;5109349;28;20454;-83
2023/07/04 04:31:55;;;;;;;8.43;6.10;;;16.90;99.90;;;;;;5107541;28;20826;-83
2023/07/04 04:34:23;;;;;;;9.20;6.13;;;17.10;99.90;;;;;;5105692;28;20462;-81
2023/07/04 04:36:51;;;;;;;13.27;7.57;;;17.20;99.90;;;;;;5100582;28;20450;-84
2023/07/04 04:39:18;;;;;;;8.47;7.00;;;17.10;99.90;;;;;;5096841;28;20439;-83
2023/07/04 04:41:45;;;;;;;6.70;6.00;;;17.00;99.90;;;;;;5108001;28;20539;-81
2023/07/04 04:44:12;;;;;;;7.10;6.10;;;17.00;99.90;;;;;;5104675;28;20479;-81
2023/07/04 04:46:48;;;;;;;9.27;7.03;;;17.10;99.90;;;;;;5112872;27;20447;-82
2023/07/04 04:49:17;;;;;;;10.50;5.90;;;17.20;99.90;;;;;;5101326;28;20466;-82
2023/07/04 04:51:44;;;;;;;8.90;7.00;;;17.20;99.90;;;;;;5103212;28;20455;-82
2023/07/04 04:54:14;;;;;;;10.10;7.03;;;17.20;99.90;;;;;;5103218;28;20565;-84
2023/07/04 04:56:44;;;;;;;11.17;6.43;;;17.30;99.90;;;;;;5111841;27;20456;-84
2023/07/04 04:59:11;;;;;;;10.20;6.77;;;17.40;99.90;;;;;;5121973;28;20884;-81
2023/07/04 05:01:38;;;;;;;12.80;7.30;;;17.40;99.90;;;;;;5114089;28;20437;-83
2023/07/04 05:04:05;;;;;;;9.37;7.33;;;17.50;99.90;;;;;;5105381;28;20491;-84
2023/07/04 05:06:33;;;;;;;7.60;6.70;;;17.40;99.90;;;;;;5104551;27;20472;-86
2023/07/04 05:09:00;;;;;;;8.07;5.93;;;17.50;99.90;;;;;;5110779;27;20453;-86
2023/07/04 05:11:29;;;;;;;7.70;6.77;;;17.70;99.90;;;;;;5111412;27;20518;-86
2023/07/04 05:13:56;;;;;;;6.90;5.33;;;18.10;99.90;;;;;;5109184;27;20543;-84
2023/07/04 05:16:23;;;;;;;8.77;6.40;;;18.30;99.90;;;;;;5106183;28;20857;-84
2023/07/04 05:18:52;;;;;;;8.30;6.40;;;18.50;99.90;;;;;;5105641;27;20527;-85
2023/07/04 05:21:21;;;;;;;11.13;7.70;;;18.40;99.90;;;;;;5104342;27;20462;-84
2023/07/04 05:23:51;;;;;;;9.70;6.23;;;18.20;99.90;;;;;;5103911;27;20550;-83
2023/07/04 05:26:24;;;;;;;7.00;5.20;;;18.10;99.90;;;;;;5106806;27;20454;-84
2023/07/04 05:28:54;;;;;;;13.07;6.50;;;18.20;99.90;;;;;;5098677;28;20514;-83
2023/07/04 05:31:23;;;;;;;8.43;5.50;;;18.60;99.90;;;;;;5104704;28;20450;-85
2023/07/04 05:33:51;;;;;;;8.40;6.10;;;18.80;99.90;;;;;;5095108;28;20919;-86
2023/07/04 05:36:21;;;;;;;8.30;6.93;;;19.00;99.90;;;;;;5101916;28;21012;-86
2023/07/04 05:38:50;;;;;;;7.97;5.73;;;19.10;99.90;;;;;;5102957;27;20458;-83
2023/07/04 05:41:19;;;;;;;9.33;6.97;;;19.20;99.90;;;;;;5111599;27;20466;-84
2023/07/04 05:43:46;;;;;;;7.47;6.70;;;19.30;99.90;;;;;;5107386;28;20996;-86
2023/07/04 05:46:17;;;;;;;12.10;8.30;;;19.40;99.90;;;;;;5106596;27;20454;-85
2023/07/04 05:48:44;;;;;;;8.70;6.77;;;19.40;99.90;;;;;;5103302;27;20459;-86
2023/07/04 05:51:14;;;;;;;7.57;6.77;;;19.40;99.90;;;;;;5092696;27;20496;-79
2023/07/04 05:53:43;;;;;;;10.40;7.17;;;19.40;99.90;;;;;;5095492;27;20511;-83
2023/07/04 05:56:12;;;;;;;8.17;6.33;;;19.50;99.90;;;;;;5101898;28;20527;-83
2023/07/04 05:58:40;;;;;;;12.43;7.10;;;19.80;99.90;;;;;;5105377;28;20451;-84
2023/07/04 06:01:09;;;;;;;8.63;5.80;;;20.20;99.90;;;;;;5104286;28;20520;-83
2023/07/04 06:03:38;;;;;;;7.93;6.57;;;20.70;99.90;;;;;;5106941;28;20467;-81
2023/07/04 06:06:06;;;;;;;11.97;5.57;;;20.70;99.90;;;;;;5099132;27;20494;-80
2023/07/04 06:08:33;;;;;;;9.70;6.97;;;21.40;99.90;;;;;;5097540;28;20468;-82
2023/07/04 06:11:01;;;;;;;9.03;6.83;;;21.60;99.40;;;;;;5103199;28;20450;-80
2023/07/04 06:13:29;;;;;;;9.00;6.23;;;21.70;99.30;;;;;;5105449;27;20446;-81
2023/07/04 06:15:56;;;;;;;9.27;6.40;;;21.70;98.50;;;;;;5102009;28;20862;-83
2023/07/04 06:18:23;;;;;;;6.87;5.50;;;21.70;97.80;;;;;;5104645;27;20471;-81
2023/07/04 06:20:52;;;;;;;7.60;6.10;;;22.00;98.40;;;;;;5108625;28;20541;-79
2023/07/04 06:23:20;;;;;;;8.63;6.60;;;22.20;98.10;;;;;;5123192;27;20502;-80
2023/07/04 06:25:47;;;;;;;8.03;5.77;;;22.40;97.50;;;;;;5116555;27;20582;-81
2023/07/04 06:28:14;;;;;;;5.57;4.87;;;22.30;94.00;;;;;;5103341;28;20914;-80
2023/07/04 06:30:41;;;;;;;11.40;6.20;;;21.70;93.80;;;;;;5103228;28;20801;-79
2023/07/04 06:33:09;;;;;;;12.80;6.43;;;21.50;94.90;;;;;;5098275;28;20462;-79
2023/07/04 06:35:42;;;;;;;8.67;5.70;;;21.20;95.10;;;;;;5106458;28;20450;-80
2023/07/04 06:38:10;;;;;;;6.37;5.57;;;21.10;96.10;;;;;;5096542;27;20467;-79
2023/07/04 06:40:38;;;;;;;9.73;5.60;;;21.50;95.70;;;;;;5108533;27;20519;-80
2023/07/04 06:43:05;;;;;;;9.67;5.57;;;21.80;96.40;;;;;;5104202;28;20450;-77
2023/07/04 06:45:33;;;;;;;5.97;4.43;;;21.60;94.40;;;;;;5100410;27;20566;-81
2023/07/04 06:48:02;;;;;;;8.93;4.67;;;21.50;95.30;;;;;;5102371;27;21011;-80
2023/07/04 06:50:29;;;;;;;10.47;5.00;;;21.40;95.20;;;;;;5105809;27;20455;-80
2023/07/04 06:52:56;;;;;;;5.43;4.70;;;21.30;94.90;;;;;;5097739;28;20446;-81
2023/07/04 06:55:24;;;;;;;6.43;4.67;;;21.40;94.80;;;;;;5107866;27;21026;-79
2023/07/04 06:57:51;;;;;;;6.93;5.17;;;21.70;95.10;;;;;;5093885;28;20470;-79
2023/07/04 07:00:19;;;;;;;6.77;5.20;;;22.00;93.90;;;;;;5103068;28;20503;-80
2023/07/04 07:02:50;;;;;;;5.10;4.60;;;21.90;93.70;;;;;;5106383;28;20981;-79
2023/07/04 07:05:18;;;;;;;6.83;4.10;;;21.70;93.50;;;;;;5091652;28;20561;-81
2023/07/04 07:07:47;;;;;;;6.30;4.70;;;21.40;93.50;;;;;;5108261;27;20541;-80
2023/07/04 07:10:14;;;;;;;6.93;4.53;;;21.30;93.60;;;;;;5109718;27;20512;-80
2023/07/04 07:12:42;;;;;;;5.57;5.10;;;21.30;94.50;;;;;;5103665;27;20465;-80
2023/07/04 07:15:09;;;;;;;6.43;4.43;;;21.30;94.10;;;;;;5102728;28;20934;-80
2023/07/04 07:17:36;;;;;;;6.60;4.60;;;21.60;94.40;;;;;;5106562;28;20501;-80
2023/07/04 07:20:04;;;;;;;5.20;4.70;;;21.90;94.30;;;;;;5105086;28;20459;-79
2023/07/04 07:22:31;;;;;;;5.00;4.17;;;22.20;92.60;;;;;;5107528;28;20529;-79
2023/07/04 07:24:58;;;;;;;5.60;3.87;;;22.30;90.90;;;;;;5115904;27;20534;-80
2023/07/04 07:27:25;;;;;;;7.43;3.80;;;22.20;90.70;;;;;;5103775;28;20466;-80
2023/07/04 07:29:53;;;;;;;4.10;3.30;;;22.30;90.20;;;;;;5107233;28;20450;-81
2023/07/04 07:32:20;;;;;;;6.90;4.87;;;22.20;91.40;;;;;;5104953;28;20512;-80
2023/07/04 07:34:47;;;;;;;7.10;4.60;;;22.30;89.90;;;;;;5106910;28;20838;-80
2023/07/04 07:37:14;;;;;;;4.73;4.30;;;22.10;90.20;;;;;;5106328;28;20442;-80
2023/07/04 07:39:42;;;;;;;5.87;5.27;;;21.90;90.10;;;;;;5112513;28;20516;-81
2023/07/04 07:42:10;;;;;;;8.60;5.20;;;21.80;90.80;;;;;;5110576;28;20435;-79
2023/07/04 07:44:37;;;;;;;4.57;4.10;;;22.00;92.20;;;;;;5100975;28;20489;-80
2023/07/04 07:47:06;;;;;;;4.90;4.10;;;21.80;91.30;;;;;;5107309;28;20519;-78
2023/07/04 07:49:33;;;;;;;4.77;4.37;;;22.00;90.10;;;;;;5120687;28;20447;-78
2023/07/04 07:52:00;;;;;;;3.80;2.50;;;22.30;88.30;;;;;;5118227;28;20460;-79
2023/07/04 07:54:27;;;;;;;5.40;3.90;;;22.70;85.90;;;;;;5111263;27;20457;-81
2023/07/04 07:56:54;;;;;;;7.30;3.50;;;22.90;84.10;;;;;;5109289;28;21079;-79
2023/07/04 07:59:21;;;;;;;4.40;2.63;;;23.10;83.30;;;;;;5108802;28;20450;-79
2023/07/04 08:01:49;;;;;;;3.90;2.30;;;23.30;80.20;;;;;;5100141;28;21001;-79
2023/07/04 08:04:18;;;;;;;6.50;2.40;;;23.30;80.70;;;;;;5103385;27;20897;-81
2023/07/04 08:06:46;;;;;;;2.10;1.90;;;23.50;79.60;;;;;;5101658;28;20463;-80
2023/07/04 08:09:15;;;;;;;4.60;2.90;;;23.30;74.30;;;;;;5108499;27;20685;-79
2023/07/04 08:11:45;;;;;;;3.63;1.80;;;23.10;76.10;;;;;;5107439;28;20462;-79
2023/07/04 08:14:13;;;;;;;6.97;3.03;;;23.20;76.90;;;;;;5108945;27;20994;-80
2023/07/04 08:16:45;;;;;;;6.23;2.60;;;23.10;75.70;;;;;;5107453;28;20492;-80
2023/07/04 08:19:13;;;;;;;2.60;2.00;;;23.20;76.10;;;;;;5105660;27;20505;-79
2023/07/04 08:21:41;;;;;;;3.67;2.70;;;23.30;74.90;;;;;;5108044;28;21069;-80
2023/07/04 08:24:12;;;;;;;2.60;2.40;;;23.60;75.00;;;;;;5110053;27;20448;-79
2023/07/04 08:26:40;;;;;;;4.43;2.57;;;23.40;72.60;;;;;;5107754;27;20490;-80
2023/07/04 08:29:08;;;;;;;3.00;2.63;;;23.40;75.70;;;;;;5101631;27;20463;-81
2023/07/04 08:31:36;;;;;;;3.43;2.60;;;23.60;73.20;;;;;;5107208;28;20447;-80
2023/07/04 08:34:04;;;;;;;2.23;2.03;;;23.60;72.70;;;;;;5106415;27;20566;-79
2023/07/04 08:36:32;;;;;;;2.00;1.87;;;23.80;73.30;;;;;;5108615;27;20471;-80
2023/07/04 08:39:01;;;;;;;3.77;2.37;;;23.70;73.30;;;;;;5111859;27;20457;-78
2023/07/04 08:41:40;;;;;;;2.63;2.20;;;23.90;69.40;;;;;;5104519;28;20439;-79
2023/07/04 08:44:10;;;;;;;2.17;1.97;;;23.90;70.60;;;;;;5102196;28;20477;-79
2023/07/04 08:46:41;;;;;;;1.63;1.50;;;24.30;71.80;;;;;;5108916;27;20618;-80
2023/07/04 08:49:17;;;;;;;4.20;2.53;;;24.30;71.00;;;;;;5103682;28;21011;-79
2023/07/04 08:51:50;;;;;;;2.83;2.20;;;24.10;69.10;;;;;;5097823;27;20471;-80
2023/07/04 08:54:18;;;;;;;3.50;1.63;;;24.20;71.90;;;;;;5100340;28;20515;-80
2023/07/04 08:56:47;;;;;;;2.53;2.33;;;24.40;69.50;;;;;;5099089;28;20500;-79
2023/07/04 08:59:21;;;;;;;3.17;2.70;;;24.60;68.60;;;;;;5107189;28;20449;-80
2023/07/04 09:02:14;;;;;;;2.50;1.87;;;24.10;69.80;;;;;;5106671;28;21051;-79
2023/07/04 09:04:47;;;;;;;3.23;1.90;;;24.00;69.00;;;;;;5094156;28;20588;-82
2023/07/04 09:07:21;;;;;;;5.33;2.00;;;23.30;71.30;;;;;;5106860;27;20466;-81
2023/07/04 09:09:59;;;;;;;2.77;1.70;;;23.40;72.00;;;;;;5102517;28;20953;-82
2023/07/04 09:12:30;;;;;;;3.13;1.80;;;23.70;73.10;;;;;;5106720;28;20526;-79
2023/07/04 09:15:04;;;;;;;4.33;1.43;;;24.30;71.50;;;;;;5103000;28;21006;-80
2023/07/04 09:17:38;;;;;;;1.80;1.50;;;24.80;69.20;;;;;;5123956;28;20473;-80
2023/07/04 09:20:09;;;;;;;3.47;2.20;;;25.20;70.40;;;;;;5110818;28;20457;-80
2023/07/04 09:22:37;;;;;;;17.87;3.63;;;25.50;67.80;;;;;;5115382;28;20449;-80
2023/07/04 09:25:07;;;;;;;2.67;1.33;;;25.60;64.40;;;;;;5101756;27;20986;-80
2023/07/04 09:27:34;;;;;;;2.03;1.87;;;25.40;60.50;;;;;;5102381;28;20477;-80
2023/07/04 09:30:03;;;;;;;1.80;0.90;;;25.40;63.20;;;;;;5096586;28;20519;-80
2023/07/04 09:32:31;;;;;;;1.43;0.90;;;25.60;64.30;;;;;;5095508;28;20444;-80
2023/07/04 09:35:02;;;;;;;2.40;1.60;;;25.90;65.80;;;;;;5099892;27;20481;-81
2023/07/04 09:37:29;;;;;;;3.47;1.23;;;25.70;61.10;;;;;;5100828;28;20892;-80
2023/07/04 09:40:00;;;;;;;1.83;1.13;;;25.80;61.80;;;;;;5103616;28;20450;-80
2023/07/04 09:42:43;;;;;;;1.40;1.20;;;26.00;59.70;;;;;;5101713;27;20461;-80
2023/07/04 09:45:13;;;;;;;2.07;1.37;;;26.20;58.40;;;;;;5100516;28;20481;-81
2023/07/04 09:47:45;;;;;;;0.93;0.80;;;26.50;58.40;;;;;;5098080;28;20467;-81
2023/07/04 09:50:15;;;;;;;1.80;1.20;;;26.50;55.10;;;;;;5099509;28;20488;-81
2023/07/04 09:52:43;;;;;;;2.67;1.80;;;26.30;56.80;;;;;;5099190;28;21131;-80
2023/07/04 09:55:16;;;;;;;2.30;1.27;;;26.20;54.90;;;;;;5094641;28;20446;-80
2023/07/04 09:57:45;;;;;;;1.00;0.80;;;26.30;55.50;;;;;;5096236;27;20865;-81
2023/07/04 10:00:20;;;;;;;3.73;1.00;;;26.40;57.60;;;;;;5099129;28;20457;-80
2023/07/04 10:02:52;;;;;;;9.40;1.53;;;26.20;56.80;;;;;;5100408;28;20531;-81
2023/07/04 10:05:31;;;;;;;2.47;1.20;;;26.10;56.40;;;;;;5098493;28;20565;-81
2023/07/04 10:08:07;;;;;;;2.37;1.60;;;26.30;58.50;;;;;;5098116;27;20458;-81
2023/07/04 10:10:37;;;;;;;1.40;1.30;;;26.80;54.70;;;;;;5103922;28;20466;-82
2023/07/04 10:13:08;;;;;;;1.27;1.00;;;26.80;56.20;;;;;;5105841;28;20561;-81
2023/07/04 10:15:41;;;;;;;3.23;0.80;;;26.50;52.70;;;;;;5099464;28;20544;-81
2023/07/04 10:18:23;;;;;;;4.40;1.07;;;26.60;53.40;;;;;;5107129;28;20443;-81
2023/07/04 10:20:54;;;;;;;1.53;1.43;;;26.60;52.30;;;;;;5106234;27;20640;-81
2023/07/04 10:23:22;;;;;;;1.80;1.20;;;25.80;52.10;;;;;;5108863;27;20454;-81
2023/07/04 10:25:51;;;;;;;1.37;0.90;;;25.30;54.60;;;;;;5104573;28;20568;-81
2023/07/04 10:28:25;;;;;;;1.70;1.30;;;25.20;55.20;;;;;;5104964;28;20453;-81
2023/07/04 10:30:56;;;;;;;1.53;1.30;;;25.20;57.00;;;;;;5105495;28;20449;-81
2023/07/04 10:33:28;;;;;;;1.73;0.90;;;25.20;56.90;;;;;;5100803;28;20447;-81
2023/07/04 10:35:55;;;;;;;8.10;1.40;;;25.00;56.70;;;;;;5104855;28;20496;-81
2023/07/04 10:38:35;;;;;;;2.10;1.20;;;25.30;59.90;;;;;;5104615;27;20491;-81
2023/07/04 10:41:14;;;;;;;6.57;1.50;;;25.60;57.20;;;;;;5112105;27;20789;-81
2023/07/04 10:43:45;;;;;;;1.80;1.10;;;25.80;56.00;;;;;;5114694;28;20917;-83
2023/07/04 10:46:20;;;;;;;1.57;1.17;;;26.20;55.10;;;;;;5112066;28;20553;-82
2023/07/04 10:48:49;;;;;;;3.50;1.23;;;26.60;53.40;;;;;;5114453;28;20465;-82
2023/07/04 10:51:24;;;;;;;2.27;1.10;;;27.10;54.70;;;;;;5108204;28;20937;-82
2023/07/04 10:53:51;;;;;;;1.57;1.27;;;26.70;51.80;;;;;;5105289;28;20449;-83
2023/07/04 10:56:24;;;;;;;1.90;1.47;;;26.00;51.40;;;;;;5107287;28;20450;-80
2023/07/04 10:58:57;;;;;;;1.30;1.20;;;25.70;54.20;;;;;;5104643;28;20489;-79
2023/07/04 11:01:28;;;;;;;1.33;0.90;;;25.70;55.10;;;;;;5104695;28;20465;-79
2023/07/04 11:04:01;;;;;;;3.43;2.00;;;25.90;54.00;;;;;;5105394;28;21074;-81
2023/07/04 11:06:34;;;;;;;2.70;1.00;;;26.50;54.30;;;;;;5109547;27;20501;-81
2023/07/04 11:09:04;;;;;;;5.00;1.17;;;26.60;52.90;;;;;;5104531;28;20534;-81
2023/07/04 11:11:32;;;;;;;1.40;0.90;;;26.60;55.10;;;;;;5092609;28;20459;-83
2023/07/04 11:14:06;;;;;;;8.43;1.47;;;26.40;54.70;;;;;;5105883;28;20457;-82
2023/07/04 11:16:34;;;;;;;5.63;1.30;;;26.20;53.40;;;;;;5092743;28;21004;-82
2023/07/04 11:19:05;;;;;;;0.83;0.70;;;26.40;52.30;;;;;;5093519;28;20883;-82
2023/07/04 11:21:33;;;;;;;1.80;1.03;;;26.60;52.30;;;;;;5102877;28;20535;-82
2023/07/04 11:24:14;;;;;;;7.13;2.47;;;27.00;52.50;;;;;;5103286;28;20470;-82
2023/07/04 11:26:55;;;;;;;1.00;0.90;;;27.30;52.70;;;;;;5103047;28;20531;-83
2023/07/04 11:29:24;;;;;;;6.10;0.90;;;27.50;50.90;;;;;;5104413;28;20444;-82
2023/07/04 11:32:13;;;;;;;3.27;1.03;;;27.70;49.40;;;;;;5101710;28;20478;-81
2023/07/04 11:34:45;;;;;;;1.70;1.23;;;27.10;49.20;;;;;;5106825;28;20457;-82
2023/07/04 11:37:17;;;;;;;5.03;2.10;;;27.30;53.30;;;;;;5105493;28;20521;-81
2023/07/04 11:39:50;;;;;;;1.80;1.17;;;27.70;51.90;;;;;;5106038;28;20547;-82
2023/07/04 11:42:21;;;;;;;1.03;0.80;;;28.00;49.80;;;;;;5103535;28;20463;-81
2023/07/04 11:44:56;;;;;;;1.43;1.10;;;28.20;45.50;;;;;;5102486;28;20451;-81
2023/07/04 11:47:34;;;;;;;1.10;1.00;;;28.20;46.30;;;;;;5117040;27;20488;-81
2023/07/04 11:50:07;;;;;;;3.80;0.90;;;28.30;48.20;;;;;;5102771;28;21007;-81
2023/07/04 11:52:37;;;;;;;1.90;0.87;;;28.70;48.50;;;;;;5101500;28;20590;-81
2023/07/04 11:55:08;;;;;;;1.27;0.70;;;28.20;44.30;;;;;;5104109;28;20444;-81
2023/07/04 11:58:18;;;;;;;1.77;1.00;;;27.60;45.40;;;;;;5102694;28;20908;-81
2023/07/04 12:01:03;;;;;;;0.73;0.70;;;26.80;46.80;;;;;;5092787;28;20477;-82
2023/07/04 12:04:05;;;;;;;3.37;0.90;;;26.30;47.70;;;;;;5103305;28;20503;-81
2023/07/04 12:07:05;;;;;;;0.97;0.80;;;26.20;49.60;;;;;;5110777;28;20482;-83
2023/07/04 12:09:43;;;;;;;0.60;0.60;;;26.20;48.60;;;;;;5118700;28;20485;-81
2023/07/04 12:12:21;;;;;;;1.20;0.77;;;26.40;49.50;;;;;;5114962;28;20446;-82
2023/07/04 12:14:51;;;;;;;0.60;0.57;;;27.00;49.40;;;;;;5110967;28;20445;-81
2023/07/04 12:17:21;;;;;;;2.30;1.27;;;27.10;47.70;;;;;;5108192;28;20508;-82
2023/07/04 12:19:55;;;;;;;1.00;0.80;;;27.10;46.90;;;;;;5111600;27;20454;-82
2023/07/04 12:22:22;;;;;;;1.07;0.93;;;26.90;46.60;;;;;;5110643;27;20470;-82
2023/07/04 12:24:49;;;;;;;1.83;0.70;;;26.60;47.30;;;;;;5108754;28;20502;-81
2023/07/04 12:27:16;;;;;;;2.23;1.17;;;27.00;45.90;;;;;;5094394;28;20543;-82
2023/07/04 12:29:45;;;;;;;1.07;1.00;;;27.30;47.20;;;;;;5109476;28;20443;-82
2023/07/04 12:32:18;;;;;;;2.20;0.80;;;27.70;47.50;;;;;;5103919;28;20451;-81
2023/07/04 12:34:47;;;;;;;3.73;0.70;;;27.90;46.20;;;;;;5109252;27;20466;-83
2023/07/04 12:37:19;;;;;;;0.93;0.87;;;27.50;44.10;;;;;;5107385;27;20946;-81
2023/07/04 12:39:48;;;;;;;1.43;0.77;;;27.40;44.70;;;;;;5100486;28;20469;-81
2023/07/04 12:42:25;;;;;;;1.57;0.70;;;27.30;46.50;;;;;;5102209;28;20466;-81
2023/07/04 12:44:52;;;;;;;0.70;0.70;;;27.20;46.60;;;;;;5104249;28;20450;-81
2023/07/04 12:47:22;;;;;;;1.27;0.70;;;27.50;44.90;;;;;;5103967;27;20484;-82
2023/07/04 12:49:54;;;;;;;1.30;0.83;;;27.90;45.00;;;;;;5105176;27;20538;-82
2023/07/04 12:52:27;;;;;;;1.90;0.60;;;27.60;41.60;;;;;;5105554;27;20457;-82
2023/07/04 12:54:55;;;;;;;1.63;0.73;;;27.50;46.00;;;;;;5105291;28;20602;-82
2023/07/04 12:57:25;;;;;;;0.90;0.50;;;27.70;42.80;;;;;;5102456;28;21042;-82
2023/07/04 12:59:53;;;;;;;0.80;0.60;;;27.90;41.10;;;;;;5108654;27;21147;-82